sensor_id;sensor_type;location;lat;lon;timestamp;pressure;altitude;pressure_sealevel;temperature;humidity
10646;BME280;5371;49.782;9.932;2022-11-04T00:01:14;98492.53;;;10.93;100.00
10646;BME280;5371;49.782;9.932;2022-11-04T00:03:40;98493.97;;;10.97;100.00
10646;BME280;5371;49.782;9.932;2022-11-04T00:06:08;98481.34;;;11.02;100.00
10646;BME280;5371;49.782;9.932;2022-11-04T00:08:35;98484.56;;;11.05;100.00
10646;BME280;5371;49.782;9.932;2022-11-04T00:11:08;98489.69;;;11.07;100.00
10646;BME280;5371;49.782;9.932;2022-11-04T00:13:53;98466.25;;;11.05;100.00
10646;BME280;5371;49.782;9.932;2022-11-04T00:16:19;98468.03;;;11.05;100.00
10646;BME280;5371;49.782;9.932;2022-11-04T00:19:04;98488.00;;;11.06;100.00
10646;BME280;5371;49.782;9.932;2022-11-04T00:21:31;98515.00;;;11.06;100.00
10646;BME280;5371;49.782;9.932;2022-11-04T00:24:15;98517.72;;;11.16;100.00
10646;BME280;5371;49.782;9.932;2022-11-04T00:27:01;98515.94;;;11.05;100.00
10646;BME280;5371;49.782;9.932;2022-11-04T00:29:46;98508.94;;;11.06;100.00
10646;BME280;5371;49.782;9.932;2022-11-04T00:32:13;98506.31;;;11.06;100.00
10646;BME280;5371;49.782;9.932;2022-11-04T00:34:57;98493.47;;;11.03;100.00
10646;BME280;5371;49.782;9.932;2022-11-04T00:37:25;98488.84;;;10.95;100.00
10646;BME280;5371;49.782;9.932;2022-11-04T00:39:52;98490.78;;;10.82;100.00
10646;BME280;5371;49.782;9.932;2022-11-04T00:42:20;98498.47;;;10.83;100.00
10646;BME280;5371;49.782;9.932;2022-11-04T00:44:47;98496.09;;;11.03;100.00
10646;BME280;5371;49.782;9.932;2022-11-04T00:47:14;98500.88;;;10.98;100.00
10646;BME280;5371;49.782;9.932;2022-11-04T00:49:41;98499.09;;;10.87;100.00
10646;BME280;5371;49.782;9.932;2022-11-04T00:52:08;98496.13;;;10.92;100.00
10646;BME280;5371;49.782;9.932;2022-11-04T00:54:35;98508.72;;;10.98;100.00
10646;BME280;5371;49.782;9.932;2022-11-04T00:57:02;98509.66;;;10.97;100.00
10646;BME280;5371;49.782;9.932;2022-11-04T00:59:31;98503.72;;;10.95;100.00
10646;BME280;5371;49.782;9.932;2022-11-04T01:01:58;98516.31;;;11.01;100.00
10646;BME280;5371;49.782;9.932;2022-11-04T01:04:24;98528.44;;;10.91;100.00
10646;BME280;5371;49.782;9.932;2022-11-04T01:06:51;98522.94;;;10.94;100.00
10646;BME280;5371;49.782;9.932;2022-11-04T01:09:19;98519.75;;;11.01;100.00
10646;BME280;5371;49.782;9.932;2022-11-04T01:11:46;98521.91;;;10.85;100.00
10646;BME280;5371;49.782;9.932;2022-11-04T01:14:13;98518.44;;;10.96;100.00
10646;BME280;5371;49.782;9.932;2022-11-04T01:16:42;98535.34;;;10.92;100.00
10646;BME280;5371;49.782;9.932;2022-11-04T01:19:10;98539.13;;;10.87;100.00
10646;BME280;5371;49.782;9.932;2022-11-04T01:21:37;98534.34;;;10.93;100.00
10646;BME280;5371;49.782;9.932;2022-11-04T01:24:05;98532.72;;;10.92;100.00
10646;BME280;5371;49.782;9.932;2022-11-04T01:26:32;98531.91;;;10.91;100.00
10646;BME280;5371;49.782;9.932;2022-11-04T01:28:59;98534.34;;;10.93;100.00
10646;BME280;5371;49.782;9.932;2022-11-04T01:31:28;98543.63;;;10.85;100.00
10646;BME280;5371;49.782;9.932;2022-11-04T01:33:57;98549.34;;;10.91;100.00
10646;BME280;5371;49.782;9.932;2022-11-04T01:36:25;98553.03;;;10.88;100.00
10646;BME280;5371;49.782;9.932;2022-11-04T01:38:53;98548.88;;;10.97;100.00
10646;BME280;5371;49.782;9.932;2022-11-04T01:41:22;98550.41;;;10.99;100.00
10646;BME280;5371;49.782;9.932;2022-11-04T01:43:52;98550.31;;;11.01;100.00
10646;BME280;5371;49.782;9.932;2022-11-04T01:46:26;98539.97;;;10.99;100.00
10646;BME280;5371;49.782;9.932;2022-11-04T01:49:00;98538.78;;;10.92;100.00
10646;BME280;5371;49.782;9.932;2022-11-04T01:51:34;98544.09;;;11.02;100.00
10646;BME280;5371;49.782;9.932;2022-11-04T01:54:03;98544.34;;;10.99;100.00
10646;BME280;5371;49.782;9.932;2022-11-04T01:56:32;98546.47;;;10.94;100.00
10646;BME280;5371;49.782;9.932;2022-11-04T01:59:11;98543.53;;;10.87;100.00
10646;BME280;5371;49.782;9.932;2022-11-04T02:01:41;98562.66;;;10.99;100.00
10646;BME280;5371;49.782;9.932;2022-11-04T02:04:10;98540.31;;;11.06;100.00
10646;BME280;5371;49.782;9.932;2022-11-04T02:06:56;98549.81;;;10.96;100.00
10646;BME280;5371;49.782;9.932;2022-11-04T02:09:26;98552.19;;;10.87;100.00
10646;BME280;5371;49.782;9.932;2022-11-04T02:11:53;98549.47;;;11.00;100.00
10646;BME280;5371;49.782;9.932;2022-11-04T02:14:38;98547.56;;;10.91;100.00
10646;BME280;5371;49.782;9.932;2022-11-04T02:17:14;98524.88;;;10.92;100.00
10646;BME280;5371;49.782;9.932;2022-11-04T02:20:06;98536.84;;;10.94;100.00
10646;BME280;5371;49.782;9.932;2022-11-04T02:25:51;98551.25;;;11.00;100.00
10646;BME280;5371;49.782;9.932;2022-11-04T02:28:36;98552.44;;;10.96;100.00
10646;BME280;5371;49.782;9.932;2022-11-04T02:31:13;98553.25;;;10.96;100.00
10646;BME280;5371;49.782;9.932;2022-11-04T02:33:48;98554.59;;;10.91;100.00
10646;BME280;5371;49.782;9.932;2022-11-04T02:36:22;98553.38;;;10.95;100.00
10646;BME280;5371;49.782;9.932;2022-11-04T02:38:56;98558.97;;;10.90;100.00
10646;BME280;5371;49.782;9.932;2022-11-04T02:41:33;98553.38;;;10.83;100.00
10646;BME280;5371;49.782;9.932;2022-11-04T02:44:13;98557.44;;;10.87;100.00
10646;BME280;5371;49.782;9.932;2022-11-04T02:46:48;98556.00;;;10.83;100.00
10646;BME280;5371;49.782;9.932;2022-11-04T02:49:22;98561.47;;;10.80;100.00
10646;BME280;5371;49.782;9.932;2022-11-04T02:51:56;98567.53;;;10.81;100.00
10646;BME280;5371;49.782;9.932;2022-11-04T02:54:27;98563.59;;;10.75;100.00
10646;BME280;5371;49.782;9.932;2022-11-04T02:56:57;98567.53;;;10.81;100.00
10646;BME280;5371;49.782;9.932;2022-11-04T02:59:28;98575.72;;;10.87;100.00
10646;BME280;5371;49.782;9.932;2022-11-04T03:02:00;98575.25;;;10.94;100.00
10646;BME280;5371;49.782;9.932;2022-11-04T03:04:32;98578.69;;;10.94;100.00
10646;BME280;5371;49.782;9.932;2022-11-04T03:07:02;98580.22;;;10.85;100.00
10646;BME280;5371;49.782;9.932;2022-11-04T03:09:31;98586.19;;;10.87;100.00
10646;BME280;5371;49.782;9.932;2022-11-04T03:12:04;98591.41;;;10.87;100.00
10646;BME280;5371;49.782;9.932;2022-11-04T03:14:35;98598.19;;;11.01;100.00
10646;BME280;5371;49.782;9.932;2022-11-04T03:17:07;98599.25;;;10.87;100.00
10646;BME280;5371;49.782;9.932;2022-11-04T03:19:44;98587.34;;;10.83;100.00
10646;BME280;5371;49.782;9.932;2022-11-04T03:22:17;98602.47;;;10.91;100.00
10646;BME280;5371;49.782;9.932;2022-11-04T03:24:47;98598.91;;;10.81;100.00
10646;BME280;5371;49.782;9.932;2022-11-04T03:27:21;98609.59;;;10.89;100.00
10646;BME280;5371;49.782;9.932;2022-11-04T03:29:56;98609.81;;;10.86;100.00
10646;BME280;5371;49.782;9.932;2022-11-04T03:32:35;98608.28;;;10.72;100.00
10646;BME280;5371;49.782;9.932;2022-11-04T03:35:04;98610.88;;;10.72;100.00
10646;BME280;5371;49.782;9.932;2022-11-04T03:37:32;98615.38;;;10.70;100.00
10646;BME280;5371;49.782;9.932;2022-11-04T03:40:00;98608.84;;;10.76;100.00
10646;BME280;5371;49.782;9.932;2022-11-04T03:42:29;98608.50;;;10.69;100.00
10646;BME280;5371;49.782;9.932;2022-11-04T03:44:58;98609.09;;;10.73;100.00
10646;BME280;5371;49.782;9.932;2022-11-04T03:47:28;98616.59;;;10.77;100.00
10646;BME280;5371;49.782;9.932;2022-11-04T03:50:01;98620.16;;;10.76;100.00
10646;BME280;5371;49.782;9.932;2022-11-04T03:52:31;98632.25;;;10.77;100.00
10646;BME280;5371;49.782;9.932;2022-11-04T03:54:58;98635.81;;;10.76;100.00
10646;BME280;5371;49.782;9.932;2022-11-04T03:57:35;98652.91;;;10.69;100.00
10646;BME280;5371;49.782;9.932;2022-11-04T04:00:09;98657.81;;;10.74;100.00
10646;BME280;5371;49.782;9.932;2022-11-04T04:02:58;98655.09;;;10.86;100.00
10646;BME280;5371;49.782;9.932;2022-11-04T04:05:28;98656.25;;;10.71;100.00
10646;BME280;5371;49.782;9.932;2022-11-04T04:08:05;98638.56;;;10.64;100.00
10646;BME280;5371;49.782;9.932;2022-11-04T04:10:39;98628.53;;;10.58;100.00
10646;BME280;5371;49.782;9.932;2022-11-04T04:13:16;98635.53;;;10.57;100.00
10646;BME280;5371;49.782;9.932;2022-11-04T04:15:48;98631.78;;;10.72;100.00
10646;BME280;5371;49.782;9.932;2022-11-04T04:18:24;98633.88;;;10.56;100.00
10646;BME280;5371;49.782;9.932;2022-11-04T04:20:53;98634.34;;;10.50;100.00
10646;BME280;5371;49.782;9.932;2022-11-04T04:23:26;98645.31;;;10.55;100.00
10646;BME280;5371;49.782;9.932;2022-11-04T04:26:12;98656.00;;;10.63;100.00
10646;BME280;5371;49.782;9.932;2022-11-04T04:28:59;98665.72;;;10.61;100.00
10646;BME280;5371;49.782;9.932;2022-11-04T04:31:29;98665.00;;;10.59;100.00
10646;BME280;5371;49.782;9.932;2022-11-04T04:34:18;98663.97;;;10.62;100.00
10646;BME280;5371;49.782;9.932;2022-11-04T04:36:50;98649.44;;;10.58;100.00
10646;BME280;5371;49.782;9.932;2022-11-04T04:39:22;98649.28;;;10.48;100.00
10646;BME280;5371;49.782;9.932;2022-11-04T04:42:08;98646.81;;;10.46;100.00
10646;BME280;5371;49.782;9.932;2022-11-04T04:44:54;98645.75;;;10.49;100.00
10646;BME280;5371;49.782;9.932;2022-11-04T04:47:40;98654.31;;;10.51;100.00
10646;BME280;5371;49.782;9.932;2022-11-04T04:50:10;98650.13;;;10.48;100.00
10646;BME280;5371;49.782;9.932;2022-11-04T04:52:40;98661.16;;;10.41;100.00
10646;BME280;5371;49.782;9.932;2022-11-04T04:55:08;98662.09;;;10.40;100.00
10646;BME280;5371;49.782;9.932;2022-11-04T04:57:36;98668.63;;;10.34;100.00
10646;BME280;5371;49.782;9.932;2022-11-04T05:00:05;98662.88;;;10.29;100.00
10646;BME280;5371;49.782;9.932;2022-11-04T05:02:33;98654.25;;;10.29;100.00
10646;BME280;5371;49.782;9.932;2022-11-04T05:05:00;98647.56;;;10.25;100.00
10646;BME280;5371;49.782;9.932;2022-11-04T05:07:28;98655.63;;;10.22;100.00
10646;BME280;5371;49.782;9.932;2022-11-04T05:09:55;98663.03;;;10.28;100.00
10646;BME280;5371;49.782;9.932;2022-11-04T05:12:23;98658.38;;;10.31;100.00
10646;BME280;5371;49.782;9.932;2022-11-04T05:14:50;98665.38;;;10.20;100.00
10646;BME280;5371;49.782;9.932;2022-11-04T05:17:17;98658.22;;;10.22;100.00
10646;BME280;5371;49.782;9.932;2022-11-04T05:19:44;98661.78;;;10.21;100.00
10646;BME280;5371;49.782;9.932;2022-11-04T05:22:11;98655.84;;;10.19;100.00
10646;BME280;5371;49.782;9.932;2022-11-04T05:24:39;98662.75;;;10.20;100.00
10646;BME280;5371;49.782;9.932;2022-11-04T05:27:06;98655.16;;;10.04;100.00
10646;BME280;5371;49.782;9.932;2022-11-04T05:29:33;98651.09;;;10.00;100.00
10646;BME280;5371;49.782;9.932;2022-11-04T05:32:00;98655.38;;;10.01;100.00
10646;BME280;5371;49.782;9.932;2022-11-04T05:34:27;98648.91;;;9.94;100.00
10646;BME280;5371;49.782;9.932;2022-11-04T05:36:54;98651.66;;;9.92;100.00
10646;BME280;5371;49.782;9.932;2022-11-04T05:39:21;98657.66;;;10.05;100.00
10646;BME280;5371;49.782;9.932;2022-11-04T05:41:49;98667.47;;;10.02;100.00
10646;BME280;5371;49.782;9.932;2022-11-04T05:44:16;98664.75;;;10.03;100.00
10646;BME280;5371;49.782;9.932;2022-11-04T05:46:43;98642.03;;;9.93;100.00
10646;BME280;5371;49.782;9.932;2022-11-04T05:49:10;98636.94;;;9.91;100.00
10646;BME280;5371;49.782;9.932;2022-11-04T05:51:37;98637.06;;;9.90;100.00
10646;BME280;5371;49.782;9.932;2022-11-04T05:54:04;98644.53;;;9.94;100.00
10646;BME280;5371;49.782;9.932;2022-11-04T05:56:31;98647.13;;;9.83;100.00
10646;BME280;5371;49.782;9.932;2022-11-04T05:59:00;98650.88;;;9.79;100.00
10646;BME280;5371;49.782;9.932;2022-11-04T06:01:30;98657.13;;;9.76;100.00
10646;BME280;5371;49.782;9.932;2022-11-04T06:04:00;98658.78;;;9.90;100.00
10646;BME280;5371;49.782;9.932;2022-11-04T06:06:30;98650.69;;;9.93;100.00
10646;BME280;5371;49.782;9.932;2022-11-04T06:08:59;98646.09;;;9.73;100.00
10646;BME280;5371;49.782;9.932;2022-11-04T06:11:27;98664.09;;;9.65;100.00
10646;BME280;5371;49.782;9.932;2022-11-04T06:13:55;98666.25;;;9.58;100.00
10646;BME280;5371;49.782;9.932;2022-11-04T06:16:24;98670.25;;;9.64;100.00
10646;BME280;5371;49.782;9.932;2022-11-04T06:18:52;98669.50;;;9.62;100.00
10646;BME280;5371;49.782;9.932;2022-11-04T06:21:23;98665.50;;;9.69;100.00
10646;BME280;5371;49.782;9.932;2022-11-04T06:23:51;98666.91;;;9.62;100.00
10646;BME280;5371;49.782;9.932;2022-11-04T06:26:19;98662.81;;;9.58;100.00
10646;BME280;5371;49.782;9.932;2022-11-04T06:28:46;98669.94;;;9.56;100.00
10646;BME280;5371;49.782;9.932;2022-11-04T06:31:14;98668.03;;;9.58;100.00
10646;BME280;5371;49.782;9.932;2022-11-04T06:33:43;98669.41;;;9.51;100.00
10646;BME280;5371;49.782;9.932;2022-11-04T06:36:12;98681.03;;;9.47;100.00
10646;BME280;5371;49.782;9.932;2022-11-04T06:38:39;98698.31;;;9.48;100.00
10646;BME280;5371;49.782;9.932;2022-11-04T06:41:08;98699.97;;;9.49;100.00
10646;BME280;5371;49.782;9.932;2022-11-04T06:43:36;98702.00;;;9.45;100.00
10646;BME280;5371;49.782;9.932;2022-11-04T06:46:03;98704.69;;;9.44;100.00
10646;BME280;5371;49.782;9.932;2022-11-04T06:48:31;98730.59;;;9.47;100.00
10646;BME280;5371;49.782;9.932;2022-11-04T06:50:59;98734.31;;;9.43;100.00
10646;BME280;5371;49.782;9.932;2022-11-04T06:53:27;98747.56;;;9.39;100.00
10646;BME280;5371;49.782;9.932;2022-11-04T06:56:01;98744.66;;;9.31;100.00
10646;BME280;5371;49.782;9.932;2022-11-04T06:58:30;98750.69;;;9.32;100.00
10646;BME280;5371;49.782;9.932;2022-11-04T07:00:57;98762.41;;;9.26;100.00
10646;BME280;5371;49.782;9.932;2022-11-04T07:03:24;98769.69;;;9.21;100.00
10646;BME280;5371;49.782;9.932;2022-11-04T07:05:51;98767.06;;;9.21;100.00
10646;BME280;5371;49.782;9.932;2022-11-04T07:08:20;98776.06;;;9.17;100.00
10646;BME280;5371;49.782;9.932;2022-11-04T07:10:47;98777.72;;;9.18;100.00
10646;BME280;5371;49.782;9.932;2022-11-04T07:13:14;98778.84;;;9.14;100.00
10646;BME280;5371;49.782;9.932;2022-11-04T07:15:42;98780.94;;;9.09;100.00
10646;BME280;5371;49.782;9.932;2022-11-04T07:18:09;98776.78;;;9.07;100.00
10646;BME280;5371;49.782;9.932;2022-11-04T07:20:36;98782.81;;;9.07;100.00
10646;BME280;5371;49.782;9.932;2022-11-04T07:23:03;98779.47;;;9.05;100.00
10646;BME280;5371;49.782;9.932;2022-11-04T07:25:32;98772.38;;;9.07;100.00
10646;BME280;5371;49.782;9.932;2022-11-04T07:27:59;98764.47;;;9.09;100.00
10646;BME280;5371;49.782;9.932;2022-11-04T07:30:26;98765.69;;;9.03;100.00
10646;BME280;5371;49.782;9.932;2022-11-04T07:32:53;98762.38;;;9.01;100.00
10646;BME280;5371;49.782;9.932;2022-11-04T07:35:20;98760.91;;;8.97;100.00
10646;BME280;5371;49.782;9.932;2022-11-04T07:37:47;98751.31;;;8.97;100.00
10646;BME280;5371;49.782;9.932;2022-11-04T07:40:14;98747.13;;;8.95;100.00
10646;BME280;5371;49.782;9.932;2022-11-04T07:42:42;98746.09;;;8.97;100.00
10646;BME280;5371;49.782;9.932;2022-11-04T07:45:15;98738.50;;;9.07;100.00
10646;BME280;5371;49.782;9.932;2022-11-04T07:47:42;98735.56;;;9.12;100.00
10646;BME280;5371;49.782;9.932;2022-11-04T07:50:09;98735.06;;;9.07;100.00
10646;BME280;5371;49.782;9.932;2022-11-04T07:52:36;98740.19;;;9.08;100.00
10646;BME280;5371;49.782;9.932;2022-11-04T07:55:04;98734.03;;;9.09;100.00
10646;BME280;5371;49.782;9.932;2022-11-04T07:57:31;98723.59;;;9.09;100.00
10646;BME280;5371;49.782;9.932;2022-11-04T08:00:00;98715.56;;;9.12;100.00
10646;BME280;5371;49.782;9.932;2022-11-04T08:02:33;98713.50;;;9.17;100.00
10646;BME280;5371;49.782;9.932;2022-11-04T08:05:06;98715.66;;;9.23;100.00
10646;BME280;5371;49.782;9.932;2022-11-04T08:07:34;98731.09;;;9.26;100.00
10646;BME280;5371;49.782;9.932;2022-11-04T08:10:01;98735.38;;;9.27;100.00
10646;BME280;5371;49.782;9.932;2022-11-04T08:12:28;98740.38;;;9.30;100.00
10646;BME280;5371;49.782;9.932;2022-11-04T08:14:57;98728.81;;;9.34;100.00
10646;BME280;5371;49.782;9.932;2022-11-04T08:17:26;98731.91;;;9.39;100.00
10646;BME280;5371;49.782;9.932;2022-11-04T08:19:53;98730.34;;;9.50;100.00
10646;BME280;5371;49.782;9.932;2022-11-04T08:22:20;98716.78;;;9.57;100.00
10646;BME280;5371;49.782;9.932;2022-11-04T08:24:47;98714.16;;;9.70;100.00
10646;BME280;5371;49.782;9.932;2022-11-04T08:27:14;98712.47;;;9.69;100.00
10646;BME280;5371;49.782;9.932;2022-11-04T08:29:41;98719.56;;;9.67;100.00
10646;BME280;5371;49.782;9.932;2022-11-04T08:32:08;98727.09;;;9.71;100.00
10646;BME280;5371;49.782;9.932;2022-11-04T08:34:36;98735.72;;;9.85;100.00
10646;BME280;5371;49.782;9.932;2022-11-04T08:37:03;98736.44;;;9.87;100.00
10646;BME280;5371;49.782;9.932;2022-11-04T08:39:30;98733.94;;;9.85;100.00
10646;BME280;5371;49.782;9.932;2022-11-04T08:41:57;98756.94;;;9.80;100.00
10646;BME280;5371;49.782;9.932;2022-11-04T08:44:24;98764.22;;;9.75;100.00
10646;BME280;5371;49.782;9.932;2022-11-04T08:46:51;98761.09;;;9.83;100.00
10646;BME280;5371;49.782;9.932;2022-11-04T08:49:18;98770.56;;;9.84;100.00
10646;BME280;5371;49.782;9.932;2022-11-04T08:51:46;98778.84;;;9.77;100.00
10646;BME280;5371;49.782;9.932;2022-11-04T08:54:20;98784.69;;;9.81;100.00
10646;BME280;5371;49.782;9.932;2022-11-04T08:56:48;98786.38;;;9.69;100.00
10646;BME280;5371;49.782;9.932;2022-11-04T08:59:15;98788.88;;;9.71;100.00
10646;BME280;5371;49.782;9.932;2022-11-04T09:01:42;98787.31;;;9.81;100.00
10646;BME280;5371;49.782;9.932;2022-11-04T09:04:13;98789.47;;;9.74;100.00
10646;BME280;5371;49.782;9.932;2022-11-04T09:06:46;98788.69;;;9.74;100.00
10646;BME280;5371;49.782;9.932;2022-11-04T09:09:15;98778.25;;;9.74;100.00
10646;BME280;5371;49.782;9.932;2022-11-04T09:11:44;98786.56;;;9.79;100.00
10646;BME280;5371;49.782;9.932;2022-11-04T09:14:12;98781.34;;;9.92;100.00
10646;BME280;5371;49.782;9.932;2022-11-04T09:16:40;98791.53;;;9.95;100.00
10646;BME280;5371;49.782;9.932;2022-11-04T09:19:08;98783.81;;;9.93;100.00
10646;BME280;5371;49.782;9.932;2022-11-04T09:21:36;98791.66;;;9.93;100.00
10646;BME280;5371;49.782;9.932;2022-11-04T09:24:06;98794.25;;;10.06;100.00
10646;BME280;5371;49.782;9.932;2022-11-04T09:26:33;98780.56;;;10.02;100.00
10646;BME280;5371;49.782;9.932;2022-11-04T09:29:00;98781.09;;;10.07;100.00
10646;BME280;5371;49.782;9.932;2022-11-04T09:31:29;98778.38;;;10.09;100.00
10646;BME280;5371;49.782;9.932;2022-11-04T09:33:57;98785.97;;;10.25;100.00
10646;BME280;5371;49.782;9.932;2022-11-04T09:36:24;98789.41;;;10.25;100.00
10646;BME280;5371;49.782;9.932;2022-11-04T09:38:54;98775.03;;;10.20;100.00
10646;BME280;5371;49.782;9.932;2022-11-04T09:41:52;98781.09;;;10.07;100.00
10646;BME280;5371;49.782;9.932;2022-11-04T09:44:25;98787.97;;;10.08;100.00
10646;BME280;5371;49.782;9.932;2022-11-04T09:46:56;98789.22;;;10.28;100.00
10646;BME280;5371;49.782;9.932;2022-11-04T09:49:26;98782.91;;;10.31;100.00
10646;BME280;5371;49.782;9.932;2022-11-04T09:51:56;98776.59;;;10.46;100.00
10646;BME280;5371;49.782;9.932;2022-11-04T09:54:28;98782.09;;;10.54;100.00
10646;BME280;5371;49.782;9.932;2022-11-04T09:57:01;98787.88;;;10.70;100.00
10646;BME280;5371;49.782;9.932;2022-11-04T09:59:32;98782.28;;;10.75;100.00
10646;BME280;5371;49.782;9.932;2022-11-04T10:05:23;98773.97;;;10.70;100.00
10646;BME280;5371;49.782;9.932;2022-11-04T10:08:23;98775.06;;;10.78;100.00
10646;BME280;5371;49.782;9.932;2022-11-04T10:10:58;98777.69;;;10.78;100.00
10646;BME280;5371;49.782;9.932;2022-11-04T10:13:45;98774.66;;;10.96;100.00
10646;BME280;5371;49.782;9.932;2022-11-04T10:16:20;98770.94;;;10.87;100.00
10646;BME280;5371;49.782;9.932;2022-11-04T10:19:01;98768.94;;;11.02;100.00
10646;BME280;5371;49.782;9.932;2022-11-04T10:21:38;98768.66;;;11.17;100.00
10646;BME280;5371;49.782;9.932;2022-11-04T10:24:28;98758.09;;;11.30;100.00
10646;BME280;5371;49.782;9.932;2022-11-04T10:27:01;98754.66;;;11.41;100.00
10646;BME280;5371;49.782;9.932;2022-11-04T10:29:35;98757.16;;;11.53;100.00
10646;BME280;5371;49.782;9.932;2022-11-04T10:32:08;98748.72;;;11.72;100.00
10646;BME280;5371;49.782;9.932;2022-11-04T10:34:41;98740.53;;;11.99;100.00
10646;BME280;5371;49.782;9.932;2022-11-04T10:37:10;98727.56;;;12.29;100.00
10646;BME280;5371;49.782;9.932;2022-11-04T10:39:42;98745.13;;;12.50;100.00
10646;BME280;5371;49.782;9.932;2022-11-04T10:42:11;98732.78;;;12.72;100.00
10646;BME280;5371;49.782;9.932;2022-11-04T10:44:40;98722.50;;;12.81;100.00
10646;BME280;5371;49.782;9.932;2022-11-04T10:47:14;98726.03;;;12.91;100.00
10646;BME280;5371;49.782;9.932;2022-11-04T10:52:33;98725.69;;;12.63;100.00
10646;BME280;5371;49.782;9.932;2022-11-04T10:55:04;98714.84;;;12.57;100.00
10646;BME280;5371;49.782;9.932;2022-11-04T10:57:37;98708.38;;;12.72;100.00
10646;BME280;5371;49.782;9.932;2022-11-04T11:00:07;98713.34;;;12.75;100.00
10646;BME280;5371;49.782;9.932;2022-11-04T11:02:46;98719.56;;;12.74;100.00
10646;BME280;5371;49.782;9.932;2022-11-04T11:05:20;98718.56;;;12.75;100.00
10646;BME280;5371;49.782;9.932;2022-11-04T11:07:49;98716.88;;;12.64;100.00
10646;BME280;5371;49.782;9.932;2022-11-04T11:10:20;98719.84;;;12.60;100.00
10646;BME280;5371;49.782;9.932;2022-11-04T11:12:53;98714.59;;;12.60;100.00
10646;BME280;5371;49.782;9.932;2022-11-04T11:15:31;98721.94;;;12.45;100.00
10646;BME280;5371;49.782;9.932;2022-11-04T11:18:11;98725.22;;;12.58;100.00
10646;BME280;5371;49.782;9.932;2022-11-04T11:20:41;98721.19;;;12.75;100.00
10646;BME280;5371;49.782;9.932;2022-11-04T11:23:35;98718.84;;;12.72;100.00
10646;BME280;5371;49.782;9.932;2022-11-04T11:26:04;98712.19;;;12.68;100.00
10646;BME280;5371;49.782;9.932;2022-11-04T11:28:32;98718.66;;;12.64;100.00
10646;BME280;5371;49.782;9.932;2022-11-04T11:31:06;98718.34;;;12.78;100.00
10646;BME280;5371;49.782;9.932;2022-11-04T11:33:45;98718.38;;;12.67;100.00
10646;BME280;5371;49.782;9.932;2022-11-04T11:36:17;98718.75;;;12.30;100.00
10646;BME280;5371;49.782;9.932;2022-11-04T11:38:55;98719.44;;;12.44;100.00
10646;BME280;5371;49.782;9.932;2022-11-04T11:41:23;98720.69;;;12.28;100.00
10646;BME280;5371;49.782;9.932;2022-11-04T11:43:59;98710.97;;;12.19;100.00
10646;BME280;5371;49.782;9.932;2022-11-04T11:46:29;98712.00;;;12.28;100.00
10646;BME280;5371;49.782;9.932;2022-11-04T11:48:59;98708.88;;;12.34;100.00
10646;BME280;5371;49.782;9.932;2022-11-04T11:51:29;98704.13;;;12.60;100.00
10646;BME280;5371;49.782;9.932;2022-11-04T11:56:45;98708.22;;;13.36;100.00
10646;BME280;5371;49.782;9.932;2022-11-04T11:59:20;98691.78;;;13.64;100.00
10646;BME280;5371;49.782;9.932;2022-11-04T12:01:56;98701.56;;;14.21;100.00
10646;BME280;5371;49.782;9.932;2022-11-04T12:04:27;98693.88;;;14.58;100.00
10646;BME280;5371;49.782;9.932;2022-11-04T12:07:01;98691.63;;;14.25;100.00
10646;BME280;5371;49.782;9.932;2022-11-04T12:09:36;98690.22;;;14.21;100.00
10646;BME280;5371;49.782;9.932;2022-11-04T12:12:22;98682.75;;;14.16;100.00
10646;BME280;5371;49.782;9.932;2022-11-04T12:15:08;98680.81;;;13.99;100.00
10646;BME280;5371;49.782;9.932;2022-11-04T12:17:54;98681.31;;;13.93;100.00
10646;BME280;5371;49.782;9.932;2022-11-04T12:20:32;98689.66;;;14.08;100.00
10646;BME280;5371;49.782;9.932;2022-11-04T12:23:10;98684.41;;;14.08;100.00
10646;BME280;5371;49.782;9.932;2022-11-04T12:25:49;98684.41;;;14.08;100.00
10646;BME280;5371;49.782;9.932;2022-11-04T12:28:28;98688.13;;;14.05;100.00
10646;BME280;5371;49.782;9.932;2022-11-04T12:31:06;98683.97;;;13.83;100.00
10646;BME280;5371;49.782;9.932;2022-11-04T12:33:43;98691.63;;;13.66;100.00
10646;BME280;5371;49.782;9.932;2022-11-04T12:36:32;98692.94;;;13.81;100.00
10646;BME280;5371;49.782;9.932;2022-11-04T12:39:18;98692.81;;;13.52;100.00
10646;BME280;5371;49.782;9.932;2022-11-04T12:41:56;98706.03;;;13.41;100.00
10646;BME280;5371;49.782;9.932;2022-11-04T12:44:31;98700.69;;;13.22;100.00
10646;BME280;5371;49.782;9.932;2022-11-04T12:47:13;98710.03;;;13.35;100.00
10646;BME280;5371;49.782;9.932;2022-11-04T12:50:28;98706.75;;;13.22;100.00
10646;BME280;5371;49.782;9.932;2022-11-04T12:53:40;98700.38;;;13.15;100.00
10646;BME280;5371;49.782;9.932;2022-11-04T12:56:14;98706.13;;;13.09;100.00
10646;BME280;5371;49.782;9.932;2022-11-04T12:59:28;98717.16;;;13.12;100.00
10646;BME280;5371;49.782;9.932;2022-11-04T13:02:03;98714.75;;;13.21;100.00
10646;BME280;5371;49.782;9.932;2022-11-04T13:04:40;98719.56;;;13.16;100.00
10646;BME280;5371;49.782;9.932;2022-11-04T13:07:15;98715.78;;;13.08;100.00
10646;BME280;5371;49.782;9.932;2022-11-04T13:09:48;98723.88;;;13.17;100.00
10646;BME280;5371;49.782;9.932;2022-11-04T13:12:20;98737.59;;;13.30;100.00
10646;BME280;5371;49.782;9.932;2022-11-04T13:14:51;98740.38;;;13.28;100.00
10646;BME280;5371;49.782;9.932;2022-11-04T13:17:24;98735.31;;;13.16;100.00
10646;BME280;5371;49.782;9.932;2022-11-04T13:19:55;98746.78;;;13.15;100.00
10646;BME280;5371;49.782;9.932;2022-11-04T13:22:29;98752.63;;;13.07;100.00
10646;BME280;5371;49.782;9.932;2022-11-04T13:25:01;98750.00;;;13.07;100.00
10646;BME280;5371;49.782;9.932;2022-11-04T13:27:34;98750.09;;;13.17;100.00
10646;BME280;5371;49.782;9.932;2022-11-04T13:30:06;98747.59;;;13.15;100.00
10646;BME280;5371;49.782;9.932;2022-11-04T13:32:42;98749.47;;;13.13;100.00
10646;BME280;5371;49.782;9.932;2022-11-04T13:35:18;98754.03;;;12.90;100.00
10646;BME280;5371;49.782;9.932;2022-11-04T13:37:56;98748.66;;;13.12;100.00
10646;BME280;5371;49.782;9.932;2022-11-04T13:40:27;98749.09;;;12.97;100.00